WetterOnline ( https://www.wetteronline.de )

Wetter aktuell Straubing

Aktuelles Wetter: Straubing (360m)

6-stündlich | Neueste Meldungen
Ortszeit Temperatur Wetter
So, 22.05. 20:00 18.9° C wolkig
So, 22.05. 14:00 21.0° C leicht bewölkt
So, 22.05. 8:00 13.7° C wolkenlos
So, 22.05. 2:00 9.3° C wolkenlos
Sa, 21.05. 20:00 18.7° C wolkig
Sa, 21.05. 14:00 20.8° C leicht bewölkt
Sa, 21.05. 8:00 16.1° C leicht bewölkt
Sa, 21.05. 2:00 21.0° C bewölkt
Ortszeit Temperatur Wetter
So, 22.05. 21:30 17.2° C wolkig
So, 22.05. 21:20 17.2° C wolkig
So, 22.05. 21:10 17.0° C bedeckt
So, 22.05. 21:00 18.6° C wolkig
So, 22.05. 20:50 18.6° C wolkig
So, 22.05. 20:40 18.4° C bedeckt
So, 22.05. 20:30 18.4° C wolkig
So, 22.05. 20:00 18.9° C wolkig
So, 22.05. 19:30 20.3° C wolkig
So, 22.05. 19:00 20.6° C leicht bewölkt
So, 22.05. 18:30 22.4° C wolkig
Ortszeit Relative Feuchte Sichtweite
So, 22.05. 20:00 59% 65 km
So, 22.05. 14:00 38% 50 km
So, 22.05. 8:00 73% 60 km
So, 22.05. 2:00 87% 45 km
Sa, 21.05. 20:00 46% 60 km
Sa, 21.05. 14:00 45% 40 km
Sa, 21.05. 8:00 72% 50 km
Sa, 21.05. 2:00 65% 40 km
Ortszeit Relative Feuchte Sichtweite
So, 22.05. 21:30 57% 60 km
So, 22.05. 21:20 57% -
So, 22.05. 21:10 59% -
So, 22.05. 21:00 53% 60 km
So, 22.05. 20:50 53% -
So, 22.05. 20:40 54% -
So, 22.05. 20:30 57% >70 km
So, 22.05. 20:00 59% 65 km
So, 22.05. 19:30 51% >70 km
So, 22.05. 19:00 45% >70 km
So, 22.05. 18:30 37% 60 km
Ortszeit Niederschlagsmenge Niederschlagsart
So, 22.05. 20:00 0.0 l/m2 in 12 Std. -
So, 22.05. 14:00 0.0 l/m2 in 6 Std. -
So, 22.05. 8:00 0.0 l/m2 in 12 Std. -
So, 22.05. 2:00 0.0 l/m2 in 6 Std. -
Sa, 21.05. 20:00 0.0 l/m2 in 12 Std. -
Sa, 21.05. 14:00 0.0 l/m2 in 6 Std. -
Sa, 21.05. 8:00 3 l/m2 in 12 Std. Regen
Sa, 21.05. 2:00 0.5 l/m2 in 6 Std. Regen
Ortszeit Niederschlagsmenge Niederschlagsart
So, 22.05. 21:30 0.0 l/m2 in 1 Std. -
So, 22.05. 21:20 keine Meldung -
So, 22.05. 21:10 keine Meldung -
So, 22.05. 21:00 0.0 l/m2 in 1 Std. -
So, 22.05. 20:50 keine Meldung -
So, 22.05. 20:40 keine Meldung -
So, 22.05. 20:30 0.0 l/m2 in 1 Std. -
So, 22.05. 20:00 0.0 l/m2 in 1 Std. -
So, 22.05. 19:30 0.0 l/m2 in 1 Std. -
So, 22.05. 19:00 0.0 l/m2 in 1 Std. -
So, 22.05. 18:30 0.0 l/m2 in 1 Std. -
Ortszeit Stärke Spitze Richtung
km/h Bft. km/h Grad Sektor
So, 22.05. 20:00 6 1 24 90° O
So, 22.05. 14:00 7 2 25 290° W
So, 22.05. 8:00 4 1 11 110° O
So, 22.05. 2:00 11 2 22 200° S
Sa, 21.05. 20:00 14 3 36 320° NW
Sa, 21.05. 14:00 15 3 35 260° W
Sa, 21.05. 8:00 13 3 28 310° NW
Sa, 21.05. 2:00 11 2 29 290° W
Ortszeit Stärke Spitze Richtung
km/h Bft. km/h Grad Sektor
So, 22.05. 21:30 6 1 9 60° NO
So, 22.05. 21:20 6 1 - 60° NO
So, 22.05. 21:10 7 2 - 70° O
So, 22.05. 21:00 7 2 11 60° NO
So, 22.05. 20:50 7 2 - 60° NO
So, 22.05. 20:40 7 2 - 70° O
So, 22.05. 20:30 7 2 7 90° O
So, 22.05. 20:00 6 1 9 90° O
So, 22.05. 19:30 4 1 7 80° O
So, 22.05. 19:00 7 2 14 90° O
So, 22.05. 18:30 7 2 14 270° W
Ortszeit Untergrenze Bedeckung Gattung
total tief tief mittel hoch
So, 22.05. 20:00 9000 m 8/8 0/8 - - -
So, 22.05. 14:00 1500 m 3/8 2/8 - - -
So, 22.05. 8:00 - 0/8 0/8 - - -
So, 22.05. 2:00 - 0/8 0/8 - - -
Sa, 21.05. 20:00 5700 m 8/8 1/8 - - -
Sa, 21.05. 14:00 1470 m 3/8 2/8 - - -
Sa, 21.05. 8:00 9000 m 3/8 0/8 - - -
Sa, 21.05. 2:00 1800 m 8/8 7/8 - - -
Ortszeit Bedeckungsgrad in Achtel und Wolkenuntergrenze
So, 22.05. 21:30 7(7800m) 8(8400m)
So, 22.05. 21:20 7(7800m) 8(8400m)
So, 22.05. 21:10 8
So, 22.05. 21:00 8(8400m)
So, 22.05. 20:50 8(8400m)
So, 22.05. 20:40 8
So, 22.05. 20:30 4(7800m) 7(8700m) 8(9000m)
So, 22.05. 20:00 8(9000m)
So, 22.05. 19:30 6(9000m) 7(9000m) 8(10500m)
So, 22.05. 19:00 8(10500m)
So, 22.05. 18:30 5(10500m) 8(10500m)
Ortszeit Luftdruck NN (hPa) Tendenz (hPa in 3 Std.)
So, 22.05. 20:00 1012 - 0,5
So, 22.05. 14:00 1014 - 1,5
So, 22.05. 8:00 1018 - 0,6
So, 22.05. 2:00 1020 - 0,4
Sa, 21.05. 20:00 1019 - 0,6
Sa, 21.05. 14:00 1021 - 0,8
Sa, 21.05. 8:00 1022 + 2,1
Sa, 21.05. 2:00 1017 + 2,2
Ortszeit Luftdruck NN (hPa) Tendenz (hPa in 3 Std.)
So, 22.05. 21:30 1012 - 0,3
So, 22.05. 21:20 1012 keine Meldung
So, 22.05. 21:10 1012 keine Meldung
So, 22.05. 21:00 1012 - 0,2
So, 22.05. 20:50 1012 keine Meldung
So, 22.05. 20:40 1012 keine Meldung
So, 22.05. 20:30 1012 - 0,4
So, 22.05. 20:00 1012 - 0,5
So, 22.05. 19:30 1012 - 0,6
So, 22.05. 19:00 1012 - 1,1
So, 22.05. 18:30 1012 - 1,1
Ortszeit Schneehöhe (cm)
So, 22.05. 20:00 0
So, 22.05. 14:00 0
So, 22.05. 8:00 0
So, 22.05. 2:00 0
Sa, 21.05. 20:00 0
Sa, 21.05. 14:00 0
Sa, 21.05. 8:00 0
Sa, 21.05. 2:00 0
Ortszeit Schneehöhe (cm)
So, 22.05. 21:30 0
So, 22.05. 21:20 0
So, 22.05. 21:10 0
So, 22.05. 21:00 0
So, 22.05. 20:50 0
So, 22.05. 20:40 0
So, 22.05. 20:30 0
So, 22.05. 20:00 0
So, 22.05. 19:30 0
So, 22.05. 19:00 0
So, 22.05. 18:30 0
Link zu dieser Seite / Seite empfehlen

Das Wetter in ...